sensor_id;sensor_type;location;lat;lon;timestamp;pressure;altitude;pressure_sealevel;temperature;humidity
26699;BME280;14313;50.892;13.756;2022-07-25T00:00:23;97777.50;;;22.43;55.08
26699;BME280;14313;50.892;13.756;2022-07-25T00:02:48;97784.44;;;22.33;54.87
26699;BME280;14313;50.892;13.756;2022-07-25T00:05:14;97775.81;;;22.31;54.82
26699;BME280;14313;50.892;13.756;2022-07-25T00:07:39;97777.22;;;22.15;55.11
26699;BME280;14313;50.892;13.756;2022-07-25T00:10:05;97768.84;;;22.23;54.72
26699;BME280;14313;50.892;13.756;2022-07-25T00:12:30;97770.16;;;22.21;55.13
26699;BME280;14313;50.892;13.756;2022-07-25T00:14:56;97765.06;;;22.13;55.97
26699;BME280;14313;50.892;13.756;2022-07-25T00:17:21;97756.72;;;22.21;55.16
26699;BME280;14313;50.892;13.756;2022-07-25T00:19:46;97760.56;;;22.06;55.92
26699;BME280;14313;50.892;13.756;2022-07-25T00:22:12;97761.69;;;22.17;55.30
26699;BME280;14313;50.892;13.756;2022-07-25T00:24:37;97755.22;;;22.06;55.65
26699;BME280;14313;50.892;13.756;2022-07-25T00:27:03;97765.66;;;22.15;55.58
26699;BME280;14313;50.892;13.756;2022-07-25T00:29:28;97749.09;;;22.18;55.69
26699;BME280;14313;50.892;13.756;2022-07-25T00:31:54;97755.06;;;22.20;55.22
26699;BME280;14313;50.892;13.756;2022-07-25T00:34:19;97755.75;;;22.15;55.59
26699;BME280;14313;50.892;13.756;2022-07-25T00:36:44;97751.47;;;22.26;55.32
26699;BME280;14313;50.892;13.756;2022-07-25T00:39:10;97756.03;;;22.25;55.38
26699;BME280;14313;50.892;13.756;2022-07-25T00:41:35;97756.84;;;22.26;55.42
26699;BME280;14313;50.892;13.756;2022-07-25T00:44:01;97758.44;;;22.15;56.55
26699;BME280;14313;50.892;13.756;2022-07-25T00:46:26;97752.00;;;22.16;55.62
26699;BME280;14313;50.892;13.756;2022-07-25T00:48:51;97743.44;;;22.26;55.81
26699;BME280;14313;50.892;13.756;2022-07-25T00:51:17;97745.31;;;22.37;55.62
26699;BME280;14313;50.892;13.756;2022-07-25T00:53:43;97744.88;;;22.40;56.03
26699;BME280;14313;50.892;13.756;2022-07-25T00:56:09;97744.66;;;22.41;55.98
26699;BME280;14313;50.892;13.756;2022-07-25T00:58:34;97742.63;;;22.37;56.89
26699;BME280;14313;50.892;13.756;2022-07-25T01:01:00;97739.59;;;22.63;56.33
26699;BME280;14313;50.892;13.756;2022-07-25T01:03:26;97738.63;;;22.58;55.61
26699;BME280;14313;50.892;13.756;2022-07-25T01:05:52;97739.13;;;22.84;55.28
26699;BME280;14313;50.892;13.756;2022-07-25T01:08:18;97734.38;;;22.98;55.49
26699;BME280;14313;50.892;13.756;2022-07-25T01:10:44;97729.91;;;23.04;55.18
26699;BME280;14313;50.892;13.756;2022-07-25T01:13:10;97726.69;;;23.60;54.63
26699;BME280;14313;50.892;13.756;2022-07-25T01:15:35;97727.97;;;23.92;53.57
26699;BME280;14313;50.892;13.756;2022-07-25T01:18:01;97726.19;;;24.21;53.08
26699;BME280;14313;50.892;13.756;2022-07-25T01:20:28;97726.69;;;24.46;52.24
26699;BME280;14313;50.892;13.756;2022-07-25T01:22:54;97719.69;;;24.62;51.99
26699;BME280;14313;50.892;13.756;2022-07-25T01:25:21;97723.22;;;25.08;50.74
26699;BME280;14313;50.892;13.756;2022-07-25T01:27:47;97716.94;;;25.19;50.44
26699;BME280;14313;50.892;13.756;2022-07-25T01:30:14;97712.78;;;25.49;50.14
26699;BME280;14313;50.892;13.756;2022-07-25T01:32:40;97707.25;;;25.39;49.82
26699;BME280;14313;50.892;13.756;2022-07-25T01:35:07;97709.72;;;25.24;50.22
26699;BME280;14313;50.892;13.756;2022-07-25T01:37:32;97708.41;;;25.27;50.17
26699;BME280;14313;50.892;13.756;2022-07-25T01:39:58;97705.84;;;25.03;50.72
26699;BME280;14313;50.892;13.756;2022-07-25T01:42:23;97704.47;;;25.01;51.12
26699;BME280;14313;50.892;13.756;2022-07-25T01:44:49;97707.28;;;25.23;50.27
26699;BME280;14313;50.892;13.756;2022-07-25T01:47:14;97700.06;;;25.12;50.74
26699;BME280;14313;50.892;13.756;2022-07-25T01:49:42;97698.34;;;25.22;50.44
26699;BME280;14313;50.892;13.756;2022-07-25T01:52:07;97696.06;;;25.31;50.73
26699;BME280;14313;50.892;13.756;2022-07-25T01:54:32;97689.34;;;25.33;49.93
26699;BME280;14313;50.892;13.756;2022-07-25T01:56:58;97695.97;;;25.42;50.19
26699;BME280;14313;50.892;13.756;2022-07-25T01:59:23;97698.81;;;25.19;50.62
26699;BME280;14313;50.892;13.756;2022-07-25T02:01:48;97693.59;;;25.63;49.62
26699;BME280;14313;50.892;13.756;2022-07-25T02:04:14;97694.16;;;25.86;49.70
26699;BME280;14313;50.892;13.756;2022-07-25T02:06:39;97689.25;;;25.62;49.48
26699;BME280;14313;50.892;13.756;2022-07-25T02:09:06;97693.09;;;25.49;50.07
26699;BME280;14313;50.892;13.756;2022-07-25T02:11:32;97681.19;;;26.05;48.66
26699;BME280;14313;50.892;13.756;2022-07-25T02:13:57;97678.66;;;26.20;48.20
26699;BME280;14313;50.892;13.756;2022-07-25T02:16:22;97687.72;;;26.09;48.91
26699;BME280;14313;50.892;13.756;2022-07-25T02:18:48;97678.94;;;25.80;49.21
26699;BME280;14313;50.892;13.756;2022-07-25T02:21:13;97674.06;;;25.99;49.08
26699;BME280;14313;50.892;13.756;2022-07-25T02:23:39;97676.03;;;26.04;49.10
26699;BME280;14313;50.892;13.756;2022-07-25T02:26:04;97678.78;;;25.87;49.35
26699;BME280;14313;50.892;13.756;2022-07-25T02:28:30;97682.78;;;25.46;50.52
26699;BME280;14313;50.892;13.756;2022-07-25T02:30:55;97685.09;;;25.76;49.97
26699;BME280;14313;50.892;13.756;2022-07-25T02:33:21;97677.94;;;25.86;49.76
26699;BME280;14313;50.892;13.756;2022-07-25T02:35:46;97678.47;;;25.83;50.30
26699;BME280;14313;50.892;13.756;2022-07-25T02:38:12;97671.97;;;25.63;50.08
26699;BME280;14313;50.892;13.756;2022-07-25T02:40:50;97680.16;;;25.34;50.85
26699;BME280;14313;50.892;13.756;2022-07-25T02:43:16;97673.97;;;25.00;51.63
26699;BME280;14313;50.892;13.756;2022-07-25T02:45:42;97673.03;;;24.78;52.86
26699;BME280;14313;50.892;13.756;2022-07-25T02:48:07;97670.34;;;24.61;52.56
26699;BME280;14313;50.892;13.756;2022-07-25T02:50:34;97674.28;;;24.42;53.01
26699;BME280;14313;50.892;13.756;2022-07-25T02:52:59;97675.22;;;24.19;53.67
26699;BME280;14313;50.892;13.756;2022-07-25T02:55:25;97666.91;;;24.09;54.27
26699;BME280;14313;50.892;13.756;2022-07-25T02:57:50;97663.28;;;24.04;54.33
26699;BME280;14313;50.892;13.756;2022-07-25T03:00:15;97665.91;;;23.87;54.85
26699;BME280;14313;50.892;13.756;2022-07-25T03:02:42;97672.00;;;23.83;55.08
26699;BME280;14313;50.892;13.756;2022-07-25T03:05:08;97664.66;;;23.78;55.24
26699;BME280;14313;50.892;13.756;2022-07-25T03:07:35;97667.00;;;23.74;55.44
26699;BME280;14313;50.892;13.756;2022-07-25T03:10:01;97664.31;;;23.63;55.59
26699;BME280;14313;50.892;13.756;2022-07-25T03:12:26;97672.72;;;23.66;55.70
26699;BME280;14313;50.892;13.756;2022-07-25T03:14:52;97662.66;;;23.73;55.85
26699;BME280;14313;50.892;13.756;2022-07-25T03:17:17;97665.84;;;24.10;54.68
26699;BME280;14313;50.892;13.756;2022-07-25T03:19:42;97652.56;;;24.49;53.98
26699;BME280;14313;50.892;13.756;2022-07-25T03:22:08;97667.03;;;24.88;52.85
26699;BME280;14313;50.892;13.756;2022-07-25T03:24:33;97657.63;;;25.24;51.94
26699;BME280;14313;50.892;13.756;2022-07-25T03:26:58;97651.03;;;25.70;50.92
26699;BME280;14313;50.892;13.756;2022-07-25T03:29:24;97647.81;;;25.73;50.73
26699;BME280;14313;50.892;13.756;2022-07-25T03:31:49;97652.66;;;25.54;50.78
26699;BME280;14313;50.892;13.756;2022-07-25T03:34:14;97653.69;;;25.92;50.03
26699;BME280;14313;50.892;13.756;2022-07-25T03:36:39;97645.00;;;26.11;49.72
26699;BME280;14313;50.892;13.756;2022-07-25T03:39:05;97649.09;;;26.14;49.64
26699;BME280;14313;50.892;13.756;2022-07-25T03:41:30;97638.88;;;26.16;49.14
26699;BME280;14313;50.892;13.756;2022-07-25T03:43:55;97641.44;;;26.27;49.09
26699;BME280;14313;50.892;13.756;2022-07-25T03:46:21;97646.19;;;26.42;48.90
26699;BME280;14313;50.892;13.756;2022-07-25T03:48:47;97639.31;;;26.29;49.16
26699;BME280;14313;50.892;13.756;2022-07-25T03:51:12;97638.94;;;26.48;48.17
26699;BME280;14313;50.892;13.756;2022-07-25T03:53:37;97639.94;;;26.68;47.93
26699;BME280;14313;50.892;13.756;2022-07-25T03:56:22;97643.19;;;26.39;48.46
26699;BME280;14313;50.892;13.756;2022-07-25T03:58:48;97639.97;;;26.42;48.48
26699;BME280;14313;50.892;13.756;2022-07-25T04:01:13;97636.94;;;26.65;47.71
26699;BME280;14313;50.892;13.756;2022-07-25T04:03:38;97642.94;;;26.40;47.92
26699;BME280;14313;50.892;13.756;2022-07-25T04:06:04;97636.38;;;26.63;47.95
26699;BME280;14313;50.892;13.756;2022-07-25T04:08:29;97641.88;;;26.41;48.04
26699;BME280;14313;50.892;13.756;2022-07-25T04:10:55;97631.66;;;26.48;48.05
26699;BME280;14313;50.892;13.756;2022-07-25T04:13:20;97626.44;;;27.00;46.84
26699;BME280;14313;50.892;13.756;2022-07-25T04:15:45;97623.41;;;26.92;47.12
26699;BME280;14313;50.892;13.756;2022-07-25T04:18:10;97631.72;;;27.17;46.58
26699;BME280;14313;50.892;13.756;2022-07-25T04:20:36;97617.19;;;26.91;47.34
26699;BME280;14313;50.892;13.756;2022-07-25T04:23:01;97621.78;;;26.91;47.17
26699;BME280;14313;50.892;13.756;2022-07-25T04:25:27;97621.16;;;27.21;46.50
26699;BME280;14313;50.892;13.756;2022-07-25T04:27:52;97622.84;;;26.90;47.35
26699;BME280;14313;50.892;13.756;2022-07-25T04:30:17;97620.31;;;27.15;46.95
26699;BME280;14313;50.892;13.756;2022-07-25T04:32:43;97617.50;;;27.00;46.90
26699;BME280;14313;50.892;13.756;2022-07-25T04:35:08;97605.72;;;26.84;47.27
26699;BME280;14313;50.892;13.756;2022-07-25T04:37:34;97603.97;;;27.00;46.97
26699;BME280;14313;50.892;13.756;2022-07-25T04:40:00;97600.66;;;26.88;47.37
26699;BME280;14313;50.892;13.756;2022-07-25T04:42:26;97594.88;;;26.84;47.29
26699;BME280;14313;50.892;13.756;2022-07-25T04:44:52;97599.13;;;27.02;47.05
26699;BME280;14313;50.892;13.756;2022-07-25T04:47:17;97588.31;;;27.07;46.76
26699;BME280;14313;50.892;13.756;2022-07-25T04:49:42;97589.53;;;27.26;46.70
26699;BME280;14313;50.892;13.756;2022-07-25T04:52:08;97584.88;;;26.85;47.39
26699;BME280;14313;50.892;13.756;2022-07-25T04:54:33;97590.28;;;27.17;46.74
26699;BME280;14313;50.892;13.756;2022-07-25T04:56:58;97578.59;;;27.11;46.52
26699;BME280;14313;50.892;13.756;2022-07-25T04:59:24;97577.44;;;26.97;47.16
26699;BME280;14313;50.892;13.756;2022-07-25T05:01:49;97576.34;;;27.45;46.14
26699;BME280;14313;50.892;13.756;2022-07-25T05:04:15;97566.75;;;27.22;46.75
26699;BME280;14313;50.892;13.756;2022-07-25T05:06:40;97565.88;;;27.53;46.19
26699;BME280;14313;50.892;13.756;2022-07-25T05:09:05;97574.56;;;27.66;45.62
26699;BME280;14313;50.892;13.756;2022-07-25T05:11:31;97572.00;;;28.11;44.94
26699;BME280;14313;50.892;13.756;2022-07-25T05:13:56;97577.63;;;27.79;45.66
26699;BME280;14313;50.892;13.756;2022-07-25T05:16:21;97571.94;;;27.91;45.52
26699;BME280;14313;50.892;13.756;2022-07-25T05:18:46;97569.00;;;27.97;45.42
26699;BME280;14313;50.892;13.756;2022-07-25T05:21:12;97573.19;;;27.58;45.88
26699;BME280;14313;50.892;13.756;2022-07-25T05:23:38;97573.84;;;27.85;45.89
26699;BME280;14313;50.892;13.756;2022-07-25T05:26:03;97568.59;;;27.59;45.96
26699;BME280;14313;50.892;13.756;2022-07-25T05:28:28;97566.78;;;27.79;45.89
26699;BME280;14313;50.892;13.756;2022-07-25T05:30:54;97569.78;;;27.88;45.40
26699;BME280;14313;50.892;13.756;2022-07-25T05:33:19;97564.19;;;28.25;45.08
26699;BME280;14313;50.892;13.756;2022-07-25T05:35:44;97560.09;;;28.12;44.86
26699;BME280;14313;50.892;13.756;2022-07-25T05:38:10;97560.94;;;28.18;45.23
26699;BME280;14313;50.892;13.756;2022-07-25T05:40:35;97558.53;;;28.36;44.59
26699;BME280;14313;50.892;13.756;2022-07-25T05:43:00;97563.13;;;28.71;44.14
26699;BME280;14313;50.892;13.756;2022-07-25T05:45:26;97558.53;;;28.57;44.51
26699;BME280;14313;50.892;13.756;2022-07-25T05:47:51;97550.41;;;28.62;43.97
26699;BME280;14313;50.892;13.756;2022-07-25T05:50:16;97555.25;;;28.60;44.56
26699;BME280;14313;50.892;13.756;2022-07-25T05:52:41;97549.28;;;28.58;44.11
26699;BME280;14313;50.892;13.756;2022-07-25T05:55:07;97552.53;;;28.34;44.46
26699;BME280;14313;50.892;13.756;2022-07-25T05:57:34;97555.53;;;28.94;43.79
26699;BME280;14313;50.892;13.756;2022-07-25T05:59:59;97561.25;;;28.92;43.79
26699;BME280;14313;50.892;13.756;2022-07-25T06:02:24;97559.59;;;28.96;43.60
26699;BME280;14313;50.892;13.756;2022-07-25T06:04:50;97551.72;;;29.00;43.87
26699;BME280;14313;50.892;13.756;2022-07-25T06:07:15;97543.28;;;29.16;43.65
26699;BME280;14313;50.892;13.756;2022-07-25T06:09:40;97535.97;;;29.02;43.25
26699;BME280;14313;50.892;13.756;2022-07-25T06:12:06;97537.25;;;29.35;43.36
26699;BME280;14313;50.892;13.756;2022-07-25T06:14:31;97546.91;;;29.66;42.62
26699;BME280;14313;50.892;13.756;2022-07-25T06:16:57;97544.66;;;29.83;42.05
26699;BME280;14313;50.892;13.756;2022-07-25T06:19:22;97530.38;;;29.62;42.59
26699;BME280;14313;50.892;13.756;2022-07-25T06:21:47;97530.16;;;29.49;42.85
26699;BME280;14313;50.892;13.756;2022-07-25T06:24:13;97529.19;;;29.79;42.61
26699;BME280;14313;50.892;13.756;2022-07-25T06:26:38;97523.34;;;29.51;42.67
26699;BME280;14313;50.892;13.756;2022-07-25T06:29:03;97522.72;;;29.70;42.85
26699;BME280;14313;50.892;13.756;2022-07-25T06:31:29;97526.19;;;29.06;43.35
26699;BME280;14313;50.892;13.756;2022-07-25T06:33:54;97530.19;;;29.44;42.54
26699;BME280;14313;50.892;13.756;2022-07-25T06:36:20;97534.81;;;29.43;42.53
26699;BME280;14313;50.892;13.756;2022-07-25T06:38:45;97520.28;;;29.68;42.60
26699;BME280;14313;50.892;13.756;2022-07-25T06:41:13;97527.44;;;29.49;42.66
26699;BME280;14313;50.892;13.756;2022-07-25T06:43:39;97516.53;;;29.59;42.50
26699;BME280;14313;50.892;13.756;2022-07-25T06:46:05;97516.78;;;29.62;41.94
26699;BME280;14313;50.892;13.756;2022-07-25T06:48:30;97519.75;;;29.66;42.80
26699;BME280;14313;50.892;13.756;2022-07-25T06:50:55;97511.38;;;30.06;42.31
26699;BME280;14313;50.892;13.756;2022-07-25T06:53:21;97508.00;;;29.76;42.52
26699;BME280;14313;50.892;13.756;2022-07-25T06:55:46;97519.53;;;30.06;42.34
26699;BME280;14313;50.892;13.756;2022-07-25T06:58:11;97505.88;;;30.17;41.84
26699;BME280;14313;50.892;13.756;2022-07-25T07:00:37;97512.19;;;30.46;41.50
26699;BME280;14313;50.892;13.756;2022-07-25T07:03:02;97509.31;;;30.27;41.69
26699;BME280;14313;50.892;13.756;2022-07-25T07:05:30;97506.72;;;30.51;41.60
26699;BME280;14313;50.892;13.756;2022-07-25T07:07:57;97499.66;;;30.50;41.34
26699;BME280;14313;50.892;13.756;2022-07-25T07:10:23;97501.66;;;30.68;41.29
26699;BME280;14313;50.892;13.756;2022-07-25T07:12:49;97496.78;;;30.65;41.41
26699;BME280;14313;50.892;13.756;2022-07-25T07:15:15;97489.16;;;30.33;41.22
26699;BME280;14313;50.892;13.756;2022-07-25T07:17:40;97486.75;;;30.89;41.05
26699;BME280;14313;50.892;13.756;2022-07-25T07:20:07;97492.06;;;31.00;40.87
26699;BME280;14313;50.892;13.756;2022-07-25T07:22:44;97494.34;;;30.64;40.62
26699;BME280;14313;50.892;13.756;2022-07-25T07:25:12;97490.06;;;30.86;40.59
26699;BME280;14313;50.892;13.756;2022-07-25T07:27:38;97498.16;;;30.63;40.93
26699;BME280;14313;50.892;13.756;2022-07-25T07:30:03;97493.00;;;31.19;40.41
26699;BME280;14313;50.892;13.756;2022-07-25T07:32:29;97506.91;;;30.88;40.49
26699;BME280;14313;50.892;13.756;2022-07-25T07:34:54;97501.31;;;31.04;40.27
26699;BME280;14313;50.892;13.756;2022-07-25T07:37:19;97499.84;;;31.16;40.07
26699;BME280;14313;50.892;13.756;2022-07-25T07:39:45;97499.41;;;31.04;39.92
26699;BME280;14313;50.892;13.756;2022-07-25T07:42:10;97499.22;;;30.96;40.70
26699;BME280;14313;50.892;13.756;2022-07-25T07:44:35;97495.13;;;31.22;40.26
26699;BME280;14313;50.892;13.756;2022-07-25T07:47:00;97509.84;;;31.21;39.50
26699;BME280;14313;50.892;13.756;2022-07-25T07:49:27;97495.72;;;30.90;40.10
26699;BME280;14313;50.892;13.756;2022-07-25T07:51:53;97494.13;;;31.60;39.40
26699;BME280;14313;50.892;13.756;2022-07-25T07:54:18;97501.72;;;31.40;39.85
26699;BME280;14313;50.892;13.756;2022-07-25T07:57:02;97503.59;;;31.44;39.59
26699;BME280;14313;50.892;13.756;2022-07-25T07:59:27;97498.16;;;31.44;39.48
26699;BME280;14313;50.892;13.756;2022-07-25T08:01:53;97502.34;;;31.98;39.24
26699;BME280;14313;50.892;13.756;2022-07-25T08:04:18;97500.69;;;31.36;39.87
26699;BME280;14313;50.892;13.756;2022-07-25T08:06:43;97503.16;;;32.17;38.47
26699;BME280;14313;50.892;13.756;2022-07-25T08:09:09;97501.38;;;31.70;39.21
26699;BME280;14313;50.892;13.756;2022-07-25T08:11:34;97496.66;;;31.94;38.66
26699;BME280;14313;50.892;13.756;2022-07-25T08:13:59;97496.00;;;31.65;39.56
26699;BME280;14313;50.892;13.756;2022-07-25T08:16:25;97498.72;;;31.84;38.50
26699;BME280;14313;50.892;13.756;2022-07-25T08:18:51;97495.84;;;32.31;38.62
26699;BME280;14313;50.892;13.756;2022-07-25T08:21:16;97493.78;;;32.23;37.96
26699;BME280;14313;50.892;13.756;2022-07-25T08:23:42;97500.34;;;32.22;38.64
26699;BME280;14313;50.892;13.756;2022-07-25T08:26:10;97495.63;;;32.28;37.97
26699;BME280;14313;50.892;13.756;2022-07-25T08:28:38;97496.78;;;32.40;37.51
26699;BME280;14313;50.892;13.756;2022-07-25T08:31:04;97491.63;;;32.39;37.74
26699;BME280;14313;50.892;13.756;2022-07-25T08:33:29;97501.34;;;32.45;38.14
26699;BME280;14313;50.892;13.756;2022-07-25T08:35:55;97505.88;;;32.68;37.44
26699;BME280;14313;50.892;13.756;2022-07-25T08:38:24;97496.47;;;33.20;36.98
26699;BME280;14313;50.892;13.756;2022-07-25T08:40:50;97491.19;;;32.96;37.25
26699;BME280;14313;50.892;13.756;2022-07-25T08:43:16;97492.28;;;32.82;37.60
26699;BME280;14313;50.892;13.756;2022-07-25T08:45:47;97497.81;;;32.44;37.25
26699;BME280;14313;50.892;13.756;2022-07-25T08:48:16;97494.47;;;33.26;37.04
26699;BME280;14313;50.892;13.756;2022-07-25T08:50:41;97490.69;;;33.35;35.27
26699;BME280;14313;50.892;13.756;2022-07-25T08:53:07;97488.28;;;33.48;35.53
26699;BME280;14313;50.892;13.756;2022-07-25T08:55:33;97488.78;;;33.36;35.45
26699;BME280;14313;50.892;13.756;2022-07-25T08:57:58;97482.56;;;32.76;36.42
26699;BME280;14313;50.892;13.756;2022-07-25T09:00:26;97485.28;;;32.89;35.85
26699;BME280;14313;50.892;13.756;2022-07-25T09:02:58;97486.16;;;33.17;35.71
26699;BME280;14313;50.892;13.756;2022-07-25T09:05:25;97493.38;;;32.67;35.73
26699;BME280;14313;50.892;13.756;2022-07-25T09:07:52;97488.66;;;32.86;35.63
26699;BME280;14313;50.892;13.756;2022-07-25T09:10:19;97482.56;;;32.89;35.50
26699;BME280;14313;50.892;13.756;2022-07-25T09:13:02;97470.38;;;33.28;34.92
26699;BME280;14313;50.892;13.756;2022-07-25T09:15:30;97477.13;;;33.30;35.12
26699;BME280;14313;50.892;13.756;2022-07-25T09:17:57;97473.38;;;32.99;35.90
26699;BME280;14313;50.892;13.756;2022-07-25T09:20:22;97463.91;;;33.24;35.58
26699;BME280;14313;50.892;13.756;2022-07-25T09:22:48;97463.28;;;33.13;34.94
26699;BME280;14313;50.892;13.756;2022-07-25T09:25:26;97464.88;;;33.41;35.16
26699;BME280;14313;50.892;13.756;2022-07-25T09:27:54;97466.47;;;33.56;35.02
26699;BME280;14313;50.892;13.756;2022-07-25T09:30:20;97464.78;;;33.47;35.79
26699;BME280;14313;50.892;13.756;2022-07-25T09:32:45;97466.09;;;33.99;35.15
26699;BME280;14313;50.892;13.756;2022-07-25T09:35:11;97457.69;;;33.59;35.03
26699;BME280;14313;50.892;13.756;2022-07-25T09:37:37;97462.75;;;33.52;34.51
26699;BME280;14313;50.892;13.756;2022-07-25T09:40:11;97462.94;;;34.05;34.15
26699;BME280;14313;50.892;13.756;2022-07-25T09:42:37;97461.66;;;34.25;33.92
26699;BME280;14313;50.892;13.756;2022-07-25T09:45:08;97465.69;;;33.15;34.92
26699;BME280;14313;50.892;13.756;2022-07-25T09:47:55;97459.50;;;33.64;34.97
26699;BME280;14313;50.892;13.756;2022-07-25T09:50:22;97457.00;;;34.26;33.81
26699;BME280;14313;50.892;13.756;2022-07-25T09:52:50;97448.34;;;35.25;32.48
26699;BME280;14313;50.892;13.756;2022-07-25T09:55:15;97445.72;;;33.55;33.90
26699;BME280;14313;50.892;13.756;2022-07-25T09:57:41;97451.34;;;33.86;34.05
26699;BME280;14313;50.892;13.756;2022-07-25T10:00:10;97442.16;;;34.71;32.97
26699;BME280;14313;50.892;13.756;2022-07-25T10:02:47;97445.16;;;35.31;32.10
26699;BME280;14313;50.892;13.756;2022-07-25T10:08:07;97433.91;;;35.59;30.54
26699;BME280;14313;50.892;13.756;2022-07-25T10:10:38;97428.97;;;35.78;30.65
26699;BME280;14313;50.892;13.756;2022-07-25T10:15:49;97432.03;;;35.68;31.59
26699;BME280;14313;50.892;13.756;2022-07-25T10:18:17;97429.94;;;35.73;30.99
26699;BME280;14313;50.892;13.756;2022-07-25T10:20:44;97420.38;;;35.05;31.98
26699;BME280;14313;50.892;13.756;2022-07-25T10:23:24;97414.25;;;36.08;31.19
26699;BME280;14313;50.892;13.756;2022-07-25T10:28:42;97405.13;;;37.35;30.43
26699;BME280;14313;50.892;13.756;2022-07-25T10:31:35;97419.91;;;36.12;29.70
26699;BME280;14313;50.892;13.756;2022-07-25T10:34:06;97422.09;;;36.53;29.10
26699;BME280;14313;50.892;13.756;2022-07-25T10:36:48;97393.44;;;37.68;28.44
26699;BME280;14313;50.892;13.756;2022-07-25T10:39:17;97385.91;;;37.77;28.78
26699;BME280;14313;50.892;13.756;2022-07-25T10:41:52;97394.91;;;35.79;31.36
26699;BME280;14313;50.892;13.756;2022-07-25T10:44:18;97369.06;;;37.37;28.59
26699;BME280;14313;50.892;13.756;2022-07-25T10:46:44;97380.56;;;37.80;27.85
26699;BME280;14313;50.892;13.756;2022-07-25T10:51:53;97377.13;;;36.83;28.55
26699;BME280;14313;50.892;13.756;2022-07-25T10:54:21;97370.06;;;37.03;29.88
26699;BME280;14313;50.892;13.756;2022-07-25T10:56:55;97374.09;;;35.95;29.96
26699;BME280;14313;50.892;13.756;2022-07-25T10:59:25;97380.16;;;37.90;28.28
26699;BME280;14313;50.892;13.756;2022-07-25T11:01:52;97367.09;;;38.65;27.37
26699;BME280;14313;50.892;13.756;2022-07-25T11:04:17;97366.72;;;38.10;27.18
26699;BME280;14313;50.892;13.756;2022-07-25T11:06:43;97364.63;;;37.44;27.27
26699;BME280;14313;50.892;13.756;2022-07-25T11:09:15;97366.72;;;37.47;27.72
26699;BME280;14313;50.892;13.756;2022-07-25T11:11:42;97358.16;;;37.20;27.35
26699;BME280;14313;50.892;13.756;2022-07-25T11:14:21;97357.56;;;37.14;28.36
26699;BME280;14313;50.892;13.756;2022-07-25T11:16:49;97359.09;;;38.39;27.61
26699;BME280;14313;50.892;13.756;2022-07-25T11:19:22;97356.31;;;38.27;26.04
26699;BME280;14313;50.892;13.756;2022-07-25T11:21:51;97359.59;;;36.50;28.77
26699;BME280;14313;50.892;13.756;2022-07-25T11:24:17;97346.09;;;37.95;27.71
26699;BME280;14313;50.892;13.756;2022-07-25T11:26:47;97331.84;;;38.95;25.98
26699;BME280;14313;50.892;13.756;2022-07-25T11:29:23;97346.97;;;38.65;26.08
26699;BME280;14313;50.892;13.756;2022-07-25T11:32:03;97330.84;;;37.65;27.77
26699;BME280;14313;50.892;13.756;2022-07-25T11:34:32;97335.19;;;37.45;27.56
26699;BME280;14313;50.892;13.756;2022-07-25T11:37:01;97328.00;;;37.73;27.72
26699;BME280;14313;50.892;13.756;2022-07-25T11:39:29;97335.19;;;39.13;26.24
26699;BME280;14313;50.892;13.756;2022-07-25T11:42:07;97331.13;;;39.22;25.31
26699;BME280;14313;50.892;13.756;2022-07-25T11:44:43;97328.41;;;38.17;26.03
26699;BME280;14313;50.892;13.756;2022-07-25T11:47:29;97322.00;;;38.25;26.01
26699;BME280;14313;50.892;13.756;2022-07-25T11:50:00;97317.25;;;37.80;27.40
26699;BME280;14313;50.892;13.756;2022-07-25T11:52:31;97319.88;;;36.85;27.94
26699;BME280;14313;50.892;13.756;2022-07-25T11:55:04;97300.72;;;38.70;26.74
26699;BME280;14313;50.892;13.756;2022-07-25T11:57:38;97276.69;;;40.62;24.99
26699;BME280;14313;50.892;13.756;2022-07-25T12:00:18;97282.94;;;39.32;26.41
26699;BME280;14313;50.892;13.756;2022-07-25T12:02:45;97292.63;;;39.38;26.40
26699;BME280;14313;50.892;13.756;2022-07-25T12:05:14;97280.44;;;39.15;26.59
26699;BME280;14313;50.892;13.756;2022-07-25T12:10:16;97281.94;;;40.67;24.83
26699;BME280;14313;50.892;13.756;2022-07-25T12:12:42;97268.53;;;40.69;24.81
26699;BME280;14313;50.892;13.756;2022-07-25T12:15:11;97276.31;;;39.89;24.66
26699;BME280;14313;50.892;13.756;2022-07-25T12:17:38;97273.78;;;40.12;25.14
26699;BME280;14313;50.892;13.756;2022-07-25T12:20:04;97257.31;;;40.78;25.50
26699;BME280;14313;50.892;13.756;2022-07-25T12:22:34;97262.81;;;39.44;26.80
26699;BME280;14313;50.892;13.756;2022-07-25T12:24:59;97255.19;;;39.13;26.84
26699;BME280;14313;50.892;13.756;2022-07-25T12:27:25;97252.81;;;39.95;26.82
26699;BME280;14313;50.892;13.756;2022-07-25T12:29:50;97240.47;;;41.02;24.92
26699;BME280;14313;50.892;13.756;2022-07-25T12:32:15;97247.91;;;39.20;26.84
26699;BME280;14313;50.892;13.756;2022-07-25T12:34:41;97245.66;;;40.22;24.75
26699;BME280;14313;50.892;13.756;2022-07-25T12:37:08;97239.19;;;40.80;24.74
26699;BME280;14313;50.892;13.756;2022-07-25T12:39:33;97238.88;;;41.97;24.15
26699;BME280;14313;50.892;13.756;2022-07-25T12:41:58;97234.56;;;42.23;23.79
26699;BME280;14313;50.892;13.756;2022-07-25T12:44:24;97236.13;;;42.69;23.87
26699;BME280;14313;50.892;13.756;2022-07-25T12:46:49;97235.84;;;40.91;24.82
26699;BME280;14313;50.892;13.756;2022-07-25T12:49:15;97226.78;;;40.74;24.69
26699;BME280;14313;50.892;13.756;2022-07-25T12:51:41;97228.16;;;40.49;26.26
26699;BME280;14313;50.892;13.756;2022-07-25T12:54:06;97229.28;;;41.34;24.72
26699;BME280;14313;50.892;13.756;2022-07-25T12:56:31;97223.38;;;41.16;25.00
26699;BME280;14313;50.892;13.756;2022-07-25T12:58:57;97220.41;;;43.33;23.23
26699;BME280;14313;50.892;13.756;2022-07-25T13:01:22;97219.13;;;43.94;22.66